Timmins/Victor M. Power
CYTS : now visible

Airfield :











YOU CAN JOIN US ON...

 
LOGIN :

Register | Disclaimer

   EN    FR    IT 

 









Legend :    VFR   Marginal VFR   IFR   Intensive IFR   Very Intensive IFR
Visi :
Ceiling :
>= 8 km
>= 3000ft
5 to 8 km
1000 to 3000 ft
1500m to 5 km
500 to 1000 ft
800 to 1500m
200 to 500 ft
< 800m
< 200 ft
Symbols :   Thunderstorms  Fog  Heavy snow  Heavy precipitations  Wind > 20 kt






- Airport Elevation : 967 ft
- IATA code : YTS


CYTS - Timmins/Victor M. Power

CURRENT METAR :
  • 271514Z 18008KT 15SM OVC056 M03/M05 A3015 RMK SC8 SLP233

EXPIRED METARs :
  • 271500Z 19009KT 12SM OVC055 M03/M06 A3016 RMK SC8 SLP235
  • 271400Z CCA 19008KT 10SM -SN OVC048 M04/M06 A3018 RMK SC8 SLP242
  • 271305Z 19006KT 15SM -SN OVC055 M05/M06 A3019 RMK SC8 SLP247

TAF TAF CYTS
Valid from the 27 at 14:00 until the 28 at 02:00 UTC


271338Z 2714/2802 18008KT P6SM BKN050
TEMPO 2714/2718 5SM -SN OVC050
BECMG 2716/2718 20010G20KT RMK NXT FCST BY 272000Z
CZYZ FIR / North America



MET'MAP, your aeronautical weather chart ! - Copyright ORBIFLY December 2007 - Disclaimer

ORBIFLY MET'MAP TEAM :

Programming & Development : Alexandra Zaïnal
Concept & original design : Baudouin d'Aumeries
Assistance for programming : Marc-Olivier Méhu
Technical & hardware support : Manuel Goepfert

Contact : metmap@orbifly.com




SOURCES & CREDITS :

   NOAA       Earth
Advisory